Latest Coastal Weather Observations for Darwin Airport

IDD60701

Issued at 4:01 pm CST Friday 27 May 2016 (issued every 10 minutes, with the page automatically refreshed every 10 minutes)

About coastal observations | Map of coastal stations | Coastal observations for NT | Marine services | Other Formats
Station Details ID: 014015 Name: DARWIN AIRPORT Lat: -12.42 Lon: 130.89 Height: 30.4 m
Data from the previous 72 hours. | See also: Recent months at Darwin Airport
Date/Time
CST
Temp

°C
Wind Pressure Rain
since 9am
mm
Weather Cloud Vis
km
Sea
Height
m
Swell
Dir
 
Speed
knots
Gust
knots
hPa Trend Height
m
Period
s
Dir
27/03:30pm 31.4 WNW 14 18 1010.8 - 0.0 - Mostly clear 10 - - - -
27/03:00pm 31.6 WNW 16 20 1011.2 S 0.0 Distant precip. Partly cloudy 30 - - - -
27/02:30pm 31.7 WNW 14 18 1011.6 - 0.0 - Mostly clear 10 - - - -
27/02:00pm 32.3 WNW 12 16 1011.9 - 0.0 - Mostly clear 10 - - - -
27/01:30pm 32.1 WNW 10 13 1012.6 - 0.0 - Mostly clear 10 - - - -
27/01:00pm 31.7 WNW 10 15 1013.1 - 0.0 - Mostly clear 10 - - - -
27/12:30pm 31.2 WNW 9 14 1013.5 - 0.0 - Mostly clear 10 - - - -
27/12:00pm 30.8 WNW 9 11 1013.7 S 0.0 Fine Mostly clear 30 - - - -
27/11:30am 31.7 WSW 6 8 1014.1 - 0.0 - Mostly clear 10 - - - -
27/11:00am 30.9 WSW 6 8 1014.5 - 0.0 - Mostly clear 10 - - - -
27/10:30am 30.8 SW 6 7 1014.7 - 0.0 - Mostly clear 10 - - - -
27/10:00am 30.0 WSW 7 10 1014.8 - 0.0 - Mostly clear 10 - - - -
27/09:30am 29.4 WSW 7 9 1014.7 - 0.0 - Mostly clear 10 - - - -
27/09:00am 29.0 SSW 4 6 1014.5 R 0.0 Fine Mostly clear 30 - - - -
27/08:30am 28.0 S 5 6 1014.2 - 0.0 - Mostly clear 10 - - - -
27/08:00am 27.1 S 4 5 1013.7 - 0.0 - Mostly clear 10 - - - -
27/07:30am 24.5 SW 4 5 1013.5 - 0.0 - Mostly clear 10 - - - -
27/07:00am 24.1 SW 3 4 1013.2 - 0.0 - Mostly clear 10 - - - -
27/06:30am 24.3 SW 4 5 1012.8 - 0.0 - Mostly clear 10 - - - -
27/06:00am 24.3 CALM 0 0 1012.6 F 0.0 Fine Mostly clear 30 - - - -
27/05:30am 24.3 CALM 0 0 1012.5 - 0.0 - Mostly clear 10 - - - -
27/05:00am 24.9 SW 3 4 1012.4 - 0.0 - Mostly clear 10 - - - -
27/04:30am 25.1 SW 4 4 1012.4 - 0.0 - Mostly clear 10 - - - -
27/04:00am 25.2 SW 3 4 1012.4 - 0.0 - Mostly clear 10 - - - -
27/03:30am 25.0 SW 3 4 1012.4 - 0.0 - Mostly clear 10 - - - -
27/03:00am 25.1 SW 4 5 1012.5 R 0.0 Fine Mostly clear 30 - - - -
27/02:30am 25.0 SW 4 5 1012.5 - 0.0 - Mostly clear 10 - - - -
27/02:00am 25.2 SW 4 5 1012.7 - 0.0 - Mostly clear 10 - - - -
27/01:30am 25.4 WSW 4 5 1012.7 - 0.0 - Mostly clear 10 - - - -
27/01:00am 25.7 WSW 4 5 1012.8 - 0.0 - Mostly clear 10 - - - -
27/12:30am 25.9 WSW 3 4 1012.9 - 0.0 - - 10 - - - -
27/12:00am 25.9 WSW 3 4 1013.1 R 0.0 Smoke Mostly clear 30 - - - -
 
Date/Time
CST
Temp

°C
Wind Pressure Rain
since 9am
mm
Weather Cloud Vis
km
Sea
Height
m
Swell
Dir
 
Speed
knots
Gust
knots
hPa Trend Height
m
Period
s
Dir
26/11:30pm 27.4 WSW 5 6 1013.1 - 0.0 - - 10 - - - -
26/11:00pm 27.8 WSW 4 5 1013.1 - 0.0 - - 10 - - - -
26/10:30pm 27.7 WSW 5 6 1013.1 - 0.0 - - 10 - - - -
26/10:00pm 27.9 WSW 5 6 1013.0 - 0.0 - - 10 - - - -
26/09:30pm 28.0 WSW 6 7 1012.9 - 0.0 - - 10 - - - -
26/09:00pm 27.9 W 5 6 1012.7 F 0.0 Smoke Mostly clear 20 - - - -
26/08:30pm 28.1 W 5 7 1012.6 - 0.0 - - 10 - - - -
26/08:00pm 28.3 W 7 9 1012.2 - 0.0 - - 10 - - - -
26/07:30pm 28.4 W 7 8 1011.8 - 0.0 - - 10 - - - -
26/07:00pm 29.1 WNW 7 8 1011.6 - 0.0 - - 10 - - - -
26/06:30pm 29.5 WNW 8 10 1011.3 - 0.0 - Mostly clear 10 - - - -
26/06:00pm 30.0 NW 9 11 1011.1 F 0.0 Smoke Mostly clear 20 - - - -
26/05:30pm 30.8 NW 9 12 1010.7 - 0.0 - Mostly clear 10 - - - -
26/05:00pm 31.0 WNW 9 12 1010.6 - 0.0 - Mostly clear 10 - - - -
26/04:30pm 31.7 NW 9 13 1010.5 - 0.0 - Mostly clear 10 - - - -
26/04:00pm 32.6 NW 10 13 1010.7 - 0.0 - Mostly clear 10 - - - -
26/03:30pm 32.7 WNW 11 15 1010.8 - 0.0 - Mostly clear 10 - - - -
26/03:00pm 32.6 WNW 8 11 1011.0 S 0.0 Fine Mostly clear 30 - - - -
26/02:30pm 33.1 NW 9 13 1011.2 - 0.0 - Mostly clear 10 - - - -
26/02:00pm 33.3 WNW 10 14 1011.5 - 0.0 - Mostly clear 10 - - - -
26/01:30pm 31.9 NW 9 13 1012.1 - 0.0 - Partly cloudy 10 - - - -
26/01:00pm 31.8 NW 9 12 1012.7 - 0.0 - Partly cloudy 10 - - - -
26/12:30pm 31.4 WNW 7 12 1013.1 - 0.0 - Partly cloudy 10 - - - -
26/12:00pm 32.1 WSW 5 8 1013.5 R 0.0 Fine Mostly clear 30 - - - -
26/11:30am 31.3 SSW 5 8 1013.9 - 0.0 - Mostly clear 10 - - - -
26/11:00am 30.8 S 6 9 1014.3 - 0.0 - Mostly clear 10 - - - -
26/10:30am 30.8 SSW 5 7 1014.5 - 0.0 - Mostly clear 10 - - - -
26/10:00am 29.6 SSE 4 7 1014.4 - 0.0 - Mostly clear 10 - - - -
26/09:30am 29.2 SW 5 6 1014.4 - 0.0 - Mostly clear 10 - - - -
26/09:00am 28.3 S 5 7 1014.1 R 0.0 Fine Mostly clear 30 - - - -
26/08:30am 27.8 SSE 5 7 1013.8 - 0.0 - Mostly clear 10 - - - -
26/08:00am 27.3 E 4 4 1013.4 - 0.0 - Mostly clear 10 - - - -
26/07:30am 25.6 SSE 4 5 1013.1 - 0.0 - Mostly clear 10 - - - -
26/07:00am 25.2 SSE 5 6 1012.7 - 0.0 - Mostly clear 10 - - - -
26/06:30am 25.1 SSE 5 5 1012.5 - 0.0 - Mostly clear 10 - - - -
26/06:00am 25.6 SSE 5 6 1012.3 F 0.0 Fine Mostly clear 30 - - - -
26/05:30am 25.7 SSE 5 6 1012.2 - 0.0 - Mostly clear 10 - - - -
26/05:00am 25.5 SE 4 5 1012.1 - 0.0 - Mostly clear 10 - - - -
26/04:30am 25.7 SSE 4 4 1011.9 - 0.0 - Mostly clear 10 - - - -
26/04:00am 25.3 SSW 4 5 1011.9 - 0.0 - Mostly clear 10 - - - -
26/03:30am 25.8 SSW 4 5 1011.9 - 0.0 - Mostly clear 10 - - - -
26/03:00am 26.3 SSW 5 5 1012.1 R 0.0 Fine Mostly clear 30 - - - -
26/02:30am 26.8 SSW 4 4 1012.4 - 0.0 - Mostly clear 10 - - - -
26/02:00am 25.8 WSW 4 4 1012.4 - 0.0 - Mostly clear 10 - - - -
26/01:30am 26.0 W 3 4 1012.5 - 0.0 - Mostly clear 10 - - - -
26/01:00am 26.1 WSW 4 4 1012.6 - 0.0 - Mostly clear 10 - - - -
26/12:30am 26.2 SW 2 3 1012.7 - 0.0 - - 10 - - - -
26/12:00am 26.7 CALM 0 0 1012.7 R 0.0 Fine Mostly clear 30 - - - -
 
Date/Time
CST
Temp

°C
Wind Pressure Rain
since 9am
mm
Weather Cloud Vis
km
Sea
Height
m
Swell
Dir
 
Speed
knots
Gust
knots
hPa Trend Height
m
Period
s
Dir
25/11:30pm 26.7 CALM 0 0 1012.9 - 0.0 - Partly cloudy 10 - - - -
25/11:00pm 27.2 SW 5 5 1012.9 - 0.0 - Mostly clear 10 - - - -
25/10:30pm 27.3 W 5 6 1012.9 - 0.0 - Mostly clear 10 - - - -
25/10:00pm 27.8 WSW 5 5 1012.5 - 0.0 - - 10 - - - -
25/09:30pm 28.1 NNW 5 7 1012.5 - 0.0 - - 10 - - - -
25/09:00pm 28.2 N 6 7 1012.3 F 0.0 Fine Mostly clear 30 - - - -
25/08:30pm 28.4 NNW 6 7 1012.1 - 0.0 - Mostly clear 10 - - - -
25/08:00pm 28.7 NNW 7 8 1011.8 - 0.0 - - 10 - - - -
25/07:30pm 29.1 NNW 6 8 1011.5 - 0.0 - - 10 - - - -
25/07:00pm 29.3 NNW 6 7 1011.0 - 0.0 - - 10 - - - -
25/06:30pm 29.7 NNW 5 7 1010.8 - 0.0 - Mostly clear 10 - - - -
25/06:00pm 30.4 NNW 6 9 1010.5 R 0.0 Fine Mostly clear 30 - - - -
25/05:30pm 30.9 NNW 8 10 1009.9 - 0.0 - Mostly clear 10 - - - -
25/05:00pm 31.1 N 9 12 1009.8 - 0.0 - Mostly clear 10 - - - -
25/04:30pm 31.1 NNW 11 14 1009.7 - 0.0 - Mostly clear 10 - - - -
25/04:00pm 31.3 NNW 11 14 1009.6 - 0.0 - Mostly clear 10 - - - -
25/03:30pm 31.3 NNW 11 15 1009.7 - 0.0 - Mostly clear 10 - - - -
25/03:00pm 32.1 NW 11 13 1009.8 R 0.0 Distant precip. Mostly clear 30 - - - -
25/02:30pm 32.0 WNW 10 12 1009.8 - 0.0 - Mostly clear 10 - - - -
25/02:00pm 32.1 WNW 8 11 1010.3 - 0.0 - Mostly clear 10 - - - -
25/01:30pm 31.1 WNW 7 11 1010.9 - 0.0 - Partly cloudy 10 - - - -
25/01:00pm 30.9 NW 7 11 1011.4 - 0.0 - Partly cloudy 10 - - - -
25/12:30pm 30.3 W 7 10 1011.9 - 0.0 - Partly cloudy 10 - - - -
25/12:00pm 30.3 SW 8 10 1012.2 F 0.0 Fine Partly cloudy 30 - - - -
25/11:30am 31.2 W 5 7 1012.5 - 0.0 - Partly cloudy 10 - - - -
25/11:00am 31.2 NNW 5 7 1012.8 - 0.0 - Partly cloudy 10 - - - -
25/10:30am 29.7 WSW 4 6 1013.1 - 0.0 - Partly cloudy 10 - - - -
25/10:00am 30.3 SW 5 7 1013.3 - 0.0 - Partly cloudy 10 - - - -
25/09:30am 28.8 SSE 2 5 1013.3 - 0.0 - Partly cloudy 10 - - - -
25/09:00am 28.8 E 4 5 1013.2 R 0.0 Fine Mostly clear 30 - - - -
25/08:30am 27.1 ENE 5 6 1013.1 - 0.0 - Mostly clear 10 - - - -
25/08:00am 25.7 E 5 6 1012.9 - 0.0 - Mostly clear 10 - - - -
25/07:30am 24.7 ENE 5 7 1012.6 - 0.0 - Mostly clear 10 - - - -
25/07:00am 24.6 ENE 4 4 1012.3 - 0.0 - Mostly clear 10 - - - -
25/06:30am 25.1 ESE 6 6 1012.0 - 0.0 - - 10 - - - -
25/06:00am 25.1 E 5 6 1011.6 F 0.0 Fine Clear 30 - - - -
25/05:30am 25.8 SSE 5 6 1011.4 - 0.0 - - 10 - - - -
25/05:00am 25.4 E 4 5 1011.3 - 0.0 - - 10 - - - -
25/04:30am 26.4 S 3 4 1011.1 - 0.0 - Mostly clear 10 - - - -
25/04:00am 26.6 SSW 5 6 1011.1 - 0.0 - Mostly clear 10 - - - -
25/03:30am 26.8 SW 5 6 1011.1 - 0.0 - Mostly clear 10 - - - -
25/03:00am 25.9 WSW 4 5 1011.4 F 0.0 Fine Mostly clear 30 - - - -
25/02:30am 25.5 CALM 0 0 1011.6 - 0.0 - Partly cloudy 10 - - - -
25/02:00am 25.6 CALM 0 0 1011.8 - 0.0 - - 10 - - - -
25/01:30am 25.7 CALM 0 0 1011.9 - 0.0 - - 10 - - - -
25/01:00am 26.0 CALM 0 0 1012.1 - 0.0 - - 10 - - - -
25/12:30am 26.2 WSW 3 3 1012.2 - 0.0 - - 10 - - - -
25/12:00am 26.5 WSW 3 4 1012.6 R 0.0 Fine Partly cloudy 30 - - - -
 
Date/Time
CST
Temp

°C
Wind Pressure Rain
since 9am
mm
Weather Cloud Vis
km
Sea
Height
m
Swell
Dir
 
Speed
knots
Gust
knots
hPa Trend Height
m
Period
s
Dir
24/11:30pm 26.4 WSW 4 5 1012.6 - 0.0 - Partly cloudy 10 - - - -
24/11:00pm 27.6 WSW 4 6 1012.4 - 0.0 - - 10 - - - -
24/10:30pm 27.0 WNW 6 6 1012.3 - 0.0 - - 10 - - - -
24/10:00pm 27.4 W 5 6 1012.4 - 0.0 - - 10 - - - -
24/09:30pm 27.9 WNW 4 4 1012.4 - 0.0 - - 10 - - - -
24/09:00pm 28.0 WSW 5 6 1012.1 F 0.0 Fine Clear 30 - - - -
24/08:30pm 28.4 WSW 5 6 1011.8 - 0.0 - - 10 - - - -
24/08:00pm 28.4 WSW 5 6 1011.4 - 0.0 - - 10 - - - -
24/07:30pm 28.6 WNW 7 8 1011.0 - 0.0 - - 10 - - - -
24/07:00pm 28.9 WNW 8 9 1010.7 - 0.0 - Mostly clear 10 - - - -
24/06:30pm 29.4 WNW 8 10 1010.6 - 0.0 - Mostly clear 10 - - - -
24/06:00pm 30.3 WNW 9 10 1010.3 F 0.0 Fine Mostly clear 30 - - - -
24/05:30pm 31.0 WNW 9 10 1010.0 - 0.0 - Mostly clear 10 - - - -
24/05:00pm 31.0 WNW 10 12 1009.8 - 0.0 - Mostly clear 10 - - - -
24/04:30pm 32.7 NW 9 12 1009.9 - 0.0 - Mostly clear 10 - - - -

Other Formats:

Comma delimited format used in spreadsheet applications
http://www.bom.gov.au/fwo/IDD60701/IDD60701.94120.axf

JavaScript Object Notation format (JSON) in row-major order
http://www.bom.gov.au/fwo/IDD60701/IDD60701.94120.json